createdAt,value
2022-08-21T00:00:27.917Z,9.95
2022-08-21T00:03:02.226Z,7.22
2022-08-21T00:05:30.347Z,7.30
2022-08-21T00:07:57.671Z,9.80
2022-08-21T00:10:25.922Z,6.03
2022-08-21T00:12:53.615Z,10.23
2022-08-21T00:15:30.919Z,7.78
2022-08-21T00:17:58.138Z,8.57
2022-08-21T00:20:28.500Z,9.20
2022-08-21T00:23:17.453Z,8.18
2022-08-21T00:25:45.526Z,8.55
2022-08-21T00:28:12.957Z,13.50
2022-08-21T00:30:40.436Z,12.27
2022-08-21T00:33:07.588Z,8.35
2022-08-21T00:35:37.052Z,11.13
2022-08-21T00:38:09.076Z,10.50
2022-08-21T00:40:47.638Z,18.05
2022-08-21T00:43:18.643Z,10.90
2022-08-21T00:45:46.021Z,8.48
2022-08-21T00:48:13.098Z,10.13
2022-08-21T00:50:44.448Z,10.55
2022-08-21T00:53:12.043Z,11.57
2022-08-21T00:55:42.892Z,9.82
2022-08-21T00:58:12.816Z,12.52
2022-08-21T01:00:42.404Z,8.75
2022-08-21T01:03:13.216Z,11.45
2022-08-21T01:05:42.038Z,11.23
2022-08-21T01:08:09.910Z,19.02
2022-08-21T01:10:37.962Z,11.45
2022-08-21T01:13:08.998Z,11.85
2022-08-21T01:15:40.137Z,8.32
2022-08-21T01:18:09.581Z,12.38
2022-08-21T01:20:37.853Z,15.20
2022-08-21T01:23:06.070Z,11.32
2022-08-21T01:25:33.853Z,8.88
2022-08-21T01:28:14.189Z,7.95
2022-08-21T01:30:43.677Z,9.48
2022-08-21T01:33:10.936Z,10.27
2022-08-21T01:35:38.466Z,9.25
2022-08-21T01:38:08.633Z,18.08
2022-08-21T01:40:35.744Z,13.10
2022-08-21T01:43:03.950Z,13.27
2022-08-21T01:45:31.122Z,16.23
2022-08-21T01:48:00.252Z,12.00
2022-08-21T01:50:27.151Z,10.27
2022-08-21T01:52:57.182Z,11.50
2022-08-21T01:55:25.607Z,9.35
2022-08-21T01:57:52.871Z,12.73
2022-08-21T02:00:23.815Z,15.55
2022-08-21T02:02:51.025Z,9.60
2022-08-21T02:05:19.660Z,17.85
2022-08-21T02:07:50.069Z,16.33
2022-08-21T02:12:56.310Z,12.30
2022-08-21T02:15:24.391Z,12.27
2022-08-21T02:17:54.184Z,10.48
2022-08-21T02:20:35.822Z,21.00
2022-08-21T02:23:08.645Z,19.25
2022-08-21T02:25:38.569Z,10.40
2022-08-21T02:28:07.965Z,10.80
2022-08-21T02:36:26.813Z,18.27
2022-08-21T02:38:54.308Z,14.15
2022-08-21T02:56:02.742Z,11.43
2022-08-21T03:03:49.354Z,11.25
2022-08-21T03:06:26.025Z,13.32
2022-08-21T03:08:52.993Z,12.27
2022-08-21T03:11:21.491Z,9.80
2022-08-21T03:13:48.523Z,10.05
2022-08-21T03:16:15.889Z,9.43
2022-08-21T03:18:42.955Z,14.75
2022-08-21T03:21:09.778Z,9.35
2022-08-21T03:23:36.767Z,16.02
2022-08-21T03:26:04.229Z,10.45
2022-08-21T03:28:31.311Z,9.50
2022-08-21T03:30:58.140Z,9.18
2022-08-21T03:33:25.372Z,12.38
2022-08-21T03:36:02.124Z,12.63
2022-08-21T03:38:30.311Z,11.13
2022-08-21T03:41:29.367Z,9.35
2022-08-21T03:43:59.530Z,11.02
2022-08-21T03:46:28.142Z,13.57
2022-08-21T03:48:55.126Z,12.68
2022-08-21T03:51:22.012Z,13.98
2022-08-21T03:53:48.880Z,12.95
2022-08-21T03:56:17.298Z,12.85
2022-08-21T03:58:45.907Z,11.23
2022-08-21T04:01:13.542Z,10.70
2022-08-21T04:03:43.233Z,10.38
2022-08-21T04:06:10.405Z,14.68
2022-08-21T04:54:36.951Z,10.25
2022-08-21T05:09:34.503Z,14.13
2022-08-21T05:12:13.458Z,8.80
2022-08-21T05:17:07.156Z,12.77
2022-08-21T05:19:33.996Z,11.98
2022-08-21T05:22:01.733Z,5.30
2022-08-21T05:24:29.183Z,5.32
2022-08-21T05:26:56.127Z,4.60
2022-08-21T05:29:23.183Z,4.63
2022-08-21T05:31:50.492Z,6.47
2022-08-21T05:34:23.376Z,4.63
2022-08-21T05:36:50.448Z,8.07
2022-08-21T05:39:17.448Z,3.03
2022-08-21T05:41:44.324Z,2.60
2022-08-21T05:44:11.401Z,6.00
2022-08-21T05:46:38.838Z,5.70
2022-08-21T05:49:05.696Z,3.90
2022-08-21T05:51:32.669Z,8.15
2022-08-21T05:53:59.706Z,7.43
2022-08-21T05:56:27.169Z,6.32
2022-08-21T05:58:54.149Z,6.75
2022-08-21T06:01:21.090Z,3.38
2022-08-21T06:03:47.990Z,4.22
2022-08-21T06:06:14.845Z,4.78
2022-08-21T06:08:41.689Z,4.15
2022-08-21T06:11:09.675Z,10.15
2022-08-21T06:13:37.321Z,9.80
2022-08-21T06:16:15.943Z,5.32
2022-08-21T06:18:45.471Z,4.88
2022-08-21T06:21:14.457Z,11.25
2022-08-21T06:23:42.134Z,6.93
2022-08-21T06:26:09.596Z,7.30
2022-08-21T06:28:38.042Z,5.05
2022-08-21T06:31:19.703Z,8.05
2022-08-21T06:33:47.591Z,10.90
2022-08-21T06:36:14.557Z,9.18
2022-08-21T06:38:41.675Z,5.15
2022-08-21T06:41:17.666Z,11.77
2022-08-21T06:43:51.560Z,8.35
2022-08-21T06:46:18.317Z,6.80
2022-08-21T06:48:45.145Z,7.20
2022-08-21T06:51:12.059Z,10.48
2022-08-21T06:53:38.949Z,7.70
2022-08-21T06:56:06.103Z,7.70
2022-08-21T06:58:33.338Z,7.18
2022-08-21T07:01:01.172Z,7.40
2022-08-21T07:03:33.276Z,7.53
2022-08-21T07:06:00.119Z,10.93
2022-08-21T07:08:28.379Z,6.03
2022-08-21T07:10:57.486Z,10.80
2022-08-21T07:13:24.733Z,6.03
2022-08-21T07:15:51.993Z,6.40
2022-08-21T07:18:18.913Z,12.98
2022-08-21T07:20:46.732Z,10.68
2022-08-21T07:23:19.606Z,7.18
2022-08-21T07:25:46.840Z,6.55
2022-08-21T07:28:13.634Z,4.50
2022-08-21T07:30:40.521Z,4.97
2022-08-21T07:33:08.253Z,2.80
2022-08-21T07:35:35.219Z,6.20
2022-08-21T07:38:02.259Z,8.60
2022-08-21T07:40:29.164Z,5.47
2022-08-21T07:42:56.266Z,10.38
2022-08-21T07:45:25.363Z,3.63
2022-08-21T07:47:56.799Z,4.50
2022-08-21T07:50:25.318Z,10.15
2022-08-21T07:52:53.015Z,5.18
2022-08-21T07:55:22.822Z,8.63
2022-08-21T07:57:50.312Z,10.95
2022-08-21T08:00:20.656Z,8.95
2022-08-21T08:02:50.936Z,12.98
2022-08-21T08:05:20.966Z,8.93
2022-08-21T08:07:48.744Z,3.90
2022-08-21T08:10:16.979Z,3.60
2022-08-21T08:12:44.741Z,5.70
2022-08-21T08:15:16.635Z,8.68
2022-08-21T08:17:43.973Z,4.13
2022-08-21T08:20:17.799Z,2.55
2022-08-21T08:22:50.136Z,6.78
2022-08-21T08:25:18.618Z,4.95
2022-08-21T08:27:45.624Z,2.90
2022-08-21T08:30:14.802Z,3.08
2022-08-21T08:32:42.685Z,4.32
2022-08-21T08:35:11.081Z,6.18
2022-08-21T08:37:41.353Z,4.28
2022-08-21T08:40:16.432Z,2.05
2022-08-21T08:42:43.701Z,6.55
2022-08-21T08:45:14.098Z,4.57
2022-08-21T08:47:45.617Z,1.98
2022-08-21T08:50:33.041Z,1.13
2022-08-21T08:53:08.488Z,1.77
2022-08-21T08:55:44.755Z,4.45
2022-08-21T08:58:25.610Z,7.90
2022-08-21T09:00:54.244Z,1.48
2022-08-21T09:03:22.751Z,1.25
2022-08-21T09:05:57.421Z,3.42
2022-08-21T09:08:30.409Z,5.20
2022-08-21T09:11:05.051Z,1.85
2022-08-21T09:13:46.485Z,6.47
2022-08-21T09:16:32.155Z,1.90
2022-08-21T09:19:13.308Z,4.85
2022-08-21T09:22:08.327Z,3.15
2022-08-21T09:25:02.069Z,2.40
2022-08-21T09:27:30.035Z,2.22
2022-08-21T09:29:58.801Z,6.20
2022-08-21T09:32:36.970Z,2.17
2022-08-21T09:35:10.381Z,4.30
2022-08-21T09:38:09.605Z,1.55
2022-08-21T09:40:36.519Z,2.63
2022-08-21T09:43:25.057Z,4.50
2022-08-21T09:46:08.742Z,7.55
2022-08-21T09:48:50.924Z,1.38
2022-08-21T09:51:19.152Z,3.50
2022-08-21T09:53:52.977Z,4.72
2022-08-21T09:56:46.772Z,2.08
2022-08-21T09:59:21.504Z,5.53
2022-08-21T10:01:50.639Z,4.25
2022-08-21T10:04:22.696Z,4.03
2022-08-21T10:06:50.539Z,5.57
2022-08-21T10:09:21.684Z,1.10
2022-08-21T10:12:12.210Z,3.65
2022-08-21T10:15:17.078Z,2.00
2022-08-21T10:17:52.707Z,4.50
2022-08-21T10:20:40.412Z,1.88
2022-08-21T10:23:27.453Z,1.10
2022-08-21T10:26:16.828Z,4.55
2022-08-21T10:29:10.067Z,2.35
2022-08-21T10:31:52.975Z,2.88
2022-08-21T10:34:22.911Z,1.70
2022-08-21T10:37:10.771Z,3.83
2022-08-21T10:39:48.692Z,4.35
2022-08-21T10:42:19.260Z,1.65
2022-08-21T10:45:01.392Z,2.70
2022-08-21T10:47:28.538Z,2.03
2022-08-21T10:50:08.388Z,2.63
2022-08-21T10:52:44.069Z,3.28
2022-08-21T10:55:17.434Z,2.92
2022-08-21T10:57:49.179Z,1.52
2022-08-21T11:00:19.974Z,0.73
2022-08-21T11:03:16.794Z,1.02
2022-08-21T11:05:51.094Z,2.60
2022-08-21T11:08:24.582Z,4.38
2022-08-21T11:11:20.017Z,0.80
2022-08-21T11:13:59.921Z,2.30
2022-08-21T11:16:39.249Z,2.67
2022-08-21T11:19:17.107Z,0.70
2022-08-21T11:21:49.779Z,1.27
2022-08-21T11:24:33.981Z,2.05
2022-08-21T11:27:13.766Z,1.98
2022-08-21T11:29:41.586Z,2.95
2022-08-21T11:32:20.623Z,6.55
2022-08-21T11:35:07.114Z,1.20
2022-08-21T11:37:48.103Z,1.20
2022-08-21T11:40:33.793Z,3.13
2022-08-21T11:43:25.113Z,2.63
2022-08-21T11:45:54.732Z,1.60
2022-08-21T11:48:57.102Z,2.10
2022-08-21T11:51:29.010Z,1.73
2022-08-21T11:53:56.149Z,9.50
2022-08-21T11:56:28.315Z,1.15
2022-08-21T11:58:58.801Z,5.60
2022-08-21T12:01:32.050Z,4.03
2022-08-21T12:04:03.786Z,3.75
2022-08-21T12:06:34.909Z,1.35
2022-08-21T12:09:06.444Z,2.30
2022-08-21T12:12:06.135Z,2.33
2022-08-21T12:14:39.257Z,7.13
2022-08-21T12:19:35.711Z,2.85
2022-08-21T12:22:02.538Z,4.88
2022-08-21T12:24:33.525Z,2.05
2022-08-21T12:27:15.667Z,1.50
2022-08-21T12:29:48.162Z,1.93
2022-08-21T12:32:14.931Z,2.55
2022-08-21T12:34:53.896Z,3.63
2022-08-21T12:37:29.885Z,0.73
2022-08-21T12:40:00.829Z,2.22
2022-08-21T12:42:43.281Z,2.75
2022-08-21T12:45:19.037Z,1.00
2022-08-21T12:48:24.974Z,1.25
2022-08-21T12:50:55.397Z,1.05
2022-08-21T12:53:34.700Z,2.53
2022-08-21T12:56:10.011Z,3.67
2022-08-21T12:58:37.053Z,1.40
2022-08-21T13:01:07.093Z,3.17
2022-08-21T13:03:37.564Z,2.03
2022-08-21T13:06:05.765Z,1.40
2022-08-21T13:08:38.917Z,3.80
2022-08-21T13:11:13.794Z,2.03
2022-08-21T13:13:44.740Z,3.22
2022-08-21T13:16:22.189Z,2.83
2022-08-21T13:18:59.860Z,1.33
2022-08-21T13:21:35.505Z,2.25
2022-08-21T13:24:43.552Z,2.72
2022-08-21T13:27:23.839Z,2.58
2022-08-21T13:30:02.204Z,4.07
2022-08-21T13:32:30.578Z,1.95
2022-08-21T13:34:58.685Z,0.90
2022-08-21T13:37:27.668Z,7.50
2022-08-21T13:39:54.573Z,2.60
2022-08-21T13:42:21.535Z,4.35
2022-08-21T13:44:49.407Z,5.07
2022-08-21T13:47:17.324Z,0.88
2022-08-21T13:49:49.370Z,7.70
2022-08-21T13:52:27.330Z,0.90
2022-08-21T13:55:00.966Z,6.78
2022-08-21T13:57:31.015Z,1.77
2022-08-21T14:00:21.784Z,3.45
2022-08-21T14:02:51.804Z,0.80
2022-08-21T14:05:30.542Z,2.78
2022-08-21T14:08:05.941Z,3.20
2022-08-21T14:10:37.316Z,2.85
2022-08-21T14:13:06.524Z,2.97
2022-08-21T14:15:35.619Z,1.70
2022-08-21T14:18:16.669Z,1.13
2022-08-21T14:20:44.004Z,5.93
2022-08-21T14:23:10.852Z,3.58
2022-08-21T14:25:45.108Z,5.25
2022-08-21T14:28:27.207Z,4.00
2022-08-21T14:33:27.316Z,4.57
2022-08-21T14:35:54.550Z,3.58
2022-08-21T14:38:23.848Z,0.98
2022-08-21T14:40:53.532Z,5.88
2022-08-21T14:43:21.661Z,2.40
2022-08-21T14:45:48.852Z,4.82
2022-08-21T14:48:15.646Z,5.63
2022-08-21T14:50:43.065Z,2.47
2022-08-21T14:53:11.181Z,7.85
2022-08-21T14:55:58.954Z,3.03
2022-08-21T14:58:26.439Z,1.05
2022-08-21T15:00:55.334Z,5.13
2022-08-21T15:03:25.188Z,1.58
2022-08-21T15:05:52.867Z,2.25
2022-08-21T15:08:19.888Z,1.52
2022-08-21T15:11:10.173Z,1.05
2022-08-21T15:13:34.430Z,2.55
2022-08-21T15:16:02.101Z,3.40
2022-08-21T15:18:30.459Z,1.70
2022-08-21T15:20:57.713Z,0.70
2022-08-21T15:23:24.724Z,1.63
2022-08-21T15:25:53.000Z,1.08
2022-08-21T15:28:21.276Z,7.95
2022-08-21T15:30:48.545Z,1.40
2022-08-21T15:33:15.641Z,1.00
2022-08-21T15:35:42.835Z,0.70
2022-08-21T15:38:11.358Z,4.28
2022-08-21T15:40:38.955Z,1.15
2022-08-21T15:43:06.573Z,0.70
2022-08-21T15:45:34.303Z,2.88
2022-08-21T15:48:02.019Z,3.92
2022-08-21T15:50:29.604Z,4.15
2022-08-21T15:52:56.471Z,2.10
2022-08-21T15:55:24.928Z,3.42
2022-08-21T15:57:57.421Z,1.88
2022-08-21T16:00:26.618Z,8.50
2022-08-21T16:02:56.164Z,3.33
2022-08-21T16:05:24.645Z,2.08
2022-08-21T16:07:52.974Z,3.78
2022-08-21T16:10:22.898Z,1.17
2022-08-21T16:12:59.310Z,2.58
2022-08-21T16:15:27.146Z,3.20
2022-08-21T16:17:54.799Z,0.80
2022-08-21T16:20:26.579Z,4.57
2022-08-21T16:22:55.101Z,7.70
2022-08-21T16:25:22.501Z,5.10
2022-08-21T16:27:57.277Z,3.50
2022-08-21T16:30:28.164Z,1.25
2022-08-21T16:32:55.515Z,1.85
2022-08-21T16:35:23.173Z,7.10
2022-08-21T16:37:53.139Z,3.80
2022-08-21T16:40:26.378Z,2.17
2022-08-21T16:42:53.483Z,4.03
2022-08-21T16:45:23.707Z,2.08
2022-08-21T16:47:51.327Z,2.38
2022-08-21T16:50:22.446Z,1.88
2022-08-21T16:52:49.719Z,1.48
2022-08-21T16:55:17.555Z,3.80
2022-08-21T16:57:44.875Z,0.93
2022-08-21T17:00:13.496Z,3.78
2022-08-21T17:02:43.906Z,2.35
2022-08-21T17:05:14.203Z,3.85
2022-08-21T17:07:42.590Z,1.65
2022-08-21T17:10:12.263Z,2.70
2022-08-21T17:12:40.657Z,2.13
2022-08-21T17:15:21.764Z,1.60
2022-08-21T17:17:49.750Z,2.78
2022-08-21T17:20:18.849Z,0.80
2022-08-21T17:22:46.115Z,0.90
2022-08-21T17:25:13.539Z,2.72
2022-08-21T17:27:41.155Z,3.60
2022-08-21T17:30:08.540Z,4.22
2022-08-21T17:32:35.312Z,6.75
2022-08-21T17:35:02.156Z,1.60
2022-08-21T17:37:29.547Z,7.95
2022-08-21T17:39:57.280Z,2.28
2022-08-21T17:42:25.228Z,4.38
2022-08-21T17:44:52.506Z,11.15
2022-08-21T17:47:19.526Z,2.38
2022-08-21T17:49:46.386Z,2.50
2022-08-21T17:52:13.268Z,5.10
2022-08-21T17:54:41.283Z,4.63
2022-08-21T17:57:10.605Z,13.27
2022-08-21T17:59:37.534Z,5.32
2022-08-21T18:02:04.736Z,5.22
2022-08-21T18:04:37.205Z,8.03
2022-08-21T18:07:04.362Z,8.55
2022-08-21T18:09:31.244Z,2.20
2022-08-21T18:11:59.542Z,18.65
2022-08-21T18:14:30.985Z,4.18
2022-08-21T18:16:57.947Z,16.08
2022-08-21T18:19:26.179Z,13.50
2022-08-21T18:21:54.348Z,19.00
2022-08-21T18:24:22.692Z,7.65
2022-08-21T18:26:50.480Z,6.38
2022-08-21T18:29:18.848Z,11.38
2022-08-21T18:31:46.528Z,12.60
2022-08-21T18:34:21.377Z,11.52
2022-08-21T18:36:48.742Z,9.27
2022-08-21T18:39:35.447Z,19.08
2022-08-21T18:42:04.425Z,9.55
2022-08-21T18:44:31.857Z,12.35
2022-08-21T18:47:01.552Z,15.45
2022-08-21T18:49:28.746Z,15.95
2022-08-21T18:51:56.575Z,10.93
2022-08-21T18:54:24.269Z,13.15
2022-08-21T18:56:54.926Z,5.88
2022-08-21T18:59:22.439Z,11.02
2022-08-21T19:01:50.268Z,12.48
2022-08-21T19:04:41.072Z,8.80
2022-08-21T19:07:04.292Z,8.27
2022-08-21T19:09:31.242Z,10.00
2022-08-21T19:11:59.053Z,12.55
2022-08-21T19:14:26.210Z,11.32
2022-08-21T19:16:53.106Z,15.65
2022-08-21T19:19:20.118Z,8.52
2022-08-21T19:21:49.549Z,12.30
2022-08-21T19:24:17.465Z,5.68
2022-08-21T19:26:45.092Z,9.05
2022-08-21T19:29:21.290Z,5.78
2022-08-21T19:32:04.816Z,11.00
2022-08-21T19:34:31.707Z,10.65
2022-08-21T19:37:03.529Z,11.02
2022-08-21T19:39:39.532Z,6.50
2022-08-21T19:42:10.169Z,4.50
2022-08-21T19:44:37.923Z,7.05
2022-08-21T19:47:12.752Z,19.50
2022-08-21T19:49:51.063Z,14.88
2022-08-21T19:52:18.763Z,10.82
2022-08-21T19:54:46.499Z,16.00
2022-08-21T19:57:13.399Z,6.78
2022-08-21T19:59:41.704Z,7.35
2022-08-21T20:02:10.924Z,12.43
2022-08-21T20:04:38.377Z,12.15
2022-08-21T20:07:08.305Z,13.45
2022-08-21T20:09:37.339Z,17.33
2022-08-21T20:12:10.272Z,12.05
2022-08-21T20:14:43.977Z,12.07
2022-08-21T20:19:40.816Z,19.13
2022-08-21T20:22:07.962Z,7.53
2022-08-21T20:24:36.397Z,10.13
2022-08-21T20:27:06.164Z,8.98
2022-08-21T20:29:38.837Z,7.90
2022-08-21T20:32:07.989Z,16.92
2022-08-21T20:34:40.108Z,10.85
2022-08-21T20:37:07.063Z,21.13
2022-08-21T20:39:36.233Z,17.17
2022-08-21T20:42:05.036Z,10.32
2022-08-21T20:44:34.482Z,7.93
2022-08-21T20:47:09.026Z,10.27
2022-08-21T20:49:44.788Z,12.07
2022-08-21T20:52:13.588Z,6.43
2022-08-21T20:54:45.716Z,12.85
2022-08-21T20:57:17.641Z,11.95
2022-08-21T20:59:52.387Z,8.70
2022-08-21T21:02:37.989Z,15.43
2022-08-21T21:05:29.840Z,11.40
2022-08-21T21:08:19.445Z,10.07
2022-08-21T21:10:57.687Z,8.75
2022-08-21T21:13:58.609Z,4.15
2022-08-21T21:16:42.236Z,6.55
2022-08-21T21:19:29.535Z,9.02
2022-08-21T21:22:11.265Z,26.25
2022-08-21T21:25:08.352Z,11.38
2022-08-21T21:27:38.601Z,12.48
2022-08-21T21:32:59.135Z,6.25
2022-08-21T21:35:32.998Z,14.05
2022-08-21T21:38:11.804Z,7.10
2022-08-21T21:40:38.597Z,8.50
2022-08-21T21:43:41.362Z,5.50
2022-08-21T21:46:14.094Z,8.73
2022-08-21T21:48:44.551Z,4.30
2022-08-21T21:51:16.915Z,6.57
2022-08-21T21:53:51.498Z,8.40
2022-08-21T21:56:35.744Z,6.25
2022-08-21T21:59:41.852Z,6.63
2022-08-21T22:02:27.366Z,9.48
2022-08-21T22:05:25.868Z,10.10
2022-08-21T22:08:00.068Z,14.38
2022-08-21T22:10:32.497Z,9.75
2022-08-21T22:13:26.133Z,9.10
2022-08-21T22:15:55.238Z,5.85
2022-08-21T22:18:29.876Z,11.98
2022-08-21T22:21:13.797Z,9.13
2022-08-21T22:23:44.866Z,15.05
2022-08-21T22:26:16.625Z,16.77
2022-08-21T22:28:47.293Z,12.93
2022-08-21T22:31:22.270Z,11.40
2022-08-21T22:34:17.676Z,17.50
2022-08-21T22:37:00.778Z,11.85
2022-08-21T22:42:27.607Z,12.48
2022-08-21T22:44:58.470Z,11.77
2022-08-21T22:47:36.211Z,22.65
2022-08-21T22:50:08.276Z,9.30
2022-08-21T22:52:37.825Z,12.48
2022-08-21T22:55:29.281Z,12.82
2022-08-21T22:58:24.111Z,10.65
2022-08-21T23:00:57.276Z,18.42
2022-08-21T23:03:32.711Z,10.60
2022-08-21T23:06:03.120Z,8.75
2022-08-21T23:08:40.851Z,9.13
2022-08-21T23:11:20.842Z,11.43
2022-08-21T23:13:51.745Z,11.68
2022-08-21T23:16:43.128Z,8.45
2022-08-21T23:19:49.573Z,11.48
2022-08-21T23:22:37.121Z,16.45
2022-08-21T23:25:17.889Z,11.43
2022-08-21T23:28:08.187Z,9.10
2022-08-21T23:30:36.829Z,14.18
2022-08-21T23:33:35.732Z,9.68
2022-08-21T23:36:24.147Z,12.73
2022-08-21T23:39:23.959Z,9.15
2022-08-21T23:41:56.938Z,15.73
2022-08-21T23:44:33.952Z,22.75
2022-08-21T23:47:27.489Z,9.57
2022-08-21T23:50:13.719Z,10.88
2022-08-21T23:52:53.468Z,16.10
2022-08-21T23:55:35.812Z,10.25
